Accueil
METAR-TAF:

METAR-TAF

Aéroports :

Aéroport de Lugano

Lugano, Suisse

latitude: 46-00N, longitude: 008-58E, altitude: 273 m

Observation

Le bulletin a été fait il y a 30 minutes, à 21:20 UTC
Vent 1 kt de direction variable
Température -2°C
Humidité 80%
Pression 1020 hPa
Visibilité 10 km ou plus
pas de nuages en-dessous de 1500 mètres et pas de cumulonimbus.

METAR: LSZA 152120Z AUTO VRB01KT CAVOK M02/M05 Q1020

Heure: 22:50 (21:50 UTC)

Prévision

Le bulletin a été fait il y a 7 heures et 25 minutes, à 14:25 UTC
Prévision valable du 15 à 15 UTC au 15 à 24 UTC
Vent 3 kt de direction variable
Visibilité 10 km ou plus
pas de nuages en-dessous de 1500 mètres et pas de cumulonimbus.
Temporairement
du 15 à 18 UTC au 15 à 24 UTC
Visibilité 10 km ou plus
Nuages fragmentés à une hauteur de 12000 ft

TAF: LSZA 151425Z 1515/1524 VRB03KT CAVOK TEMPO 1518/1524 9999 BKN120

Observations et prévisions météorologiques de plus de 4000 aéroports (messages METAR et TAF).

Les stations disponibles sont représentées par des disques jaunes et rouges sur la carte.

Passer la souris dessus pour voir le nom de la station.

Cliquer dessus pour voir les observations et prévisions météorologiques.

Pour changer de carte: cliquez sur les boutons verts avec une croix noire pour zoomer, sur le bouton vert avec un tiret pour effectuer un zoom arrière, ou sur les flèches vertes pour les cartes adjacentes.


METAR-TAF: